Latest Weather Observations for Kalgoorlie-Boulder

IDW60801

Issued at 11:34 am WST Wednesday 22 February 2017 (issued every 30 minutes, with the page automatically refreshed every 10 minutes)

About weather observations | Map of weather stations | Latest weather observations for WA | Other Formats
Station Details ID: 012038 Name: KALGOORLIE-BOULDER AIRPORT Lat: -30.78 Lon: 121.45 Height: 365.3 m
Data from the previous 72 hours. | See also: Recent months at Kalgoorlie-Boulder
Date/Time
WST
Temp
°C
App
Temp
°C
Dew
Point
°C
Rel
Hum
%
Delta-T
°C
Wind Press
QNH
hPa
Press
MSL
hPa
Rain since
9am
mm
Dir  Spd
km/h
Gust
km/h
Spd
kts
Gust
kts
22/11:30am 20.4 17.9 4.8 36 7.7 NW 7 17 4 9 1020.2 - 0.0
22/11:00am 18.9 15.8 5.4 41 6.7 NNE 11 19 6 10 1020.7 - 0.0
22/10:30am 18.1 15.7 4.3 40 6.7 W 6 13 3 7 1020.9 - 0.0
22/10:00am 17.4 14.9 4.7 43 6.2 NE 7 13 4 7 1021.0 - 0.0
22/09:30am 17.0 13.8 5.0 45 5.8 WSW 11 17 6 9 1021.2 - 0.0
22/09:00am 16.2 13.7 4.9 47 5.4 SE 7 15 4 8 1021.2 1019.2 0.2
22/08:30am 15.6 12.7 6.3 54 4.6 S 11 17 6 9 1021.2 - 0.2
22/08:16am 14.6 11.4 5.1 53 4.6 S 11 19 6 10 1021.0 - 0.2
22/08:00am 14.6 11.2 5.7 55 4.3 S 13 20 7 11 1020.8 - 0.2
22/07:57am 14.4 11.3 5.5 55 4.3 S 11 19 6 10 1020.7 - 0.2
22/07:30am 13.8 9.9 5.4 57 4.0 S 15 20 8 11 1020.6 - 0.2
22/07:00am 13.1 9.6 5.5 60 3.6 SSW 13 17 7 9 1020.1 - 0.2
22/06:30am 11.9 8.8 5.5 65 3.0 S 11 15 6 8 1019.7 - 0.2
22/06:00am 11.0 7.8 5.3 68 2.7 SSW 11 15 6 8 1019.4 1017.4 0.2
22/05:30am 10.4 7.3 5.6 72 2.2 SSW 11 15 6 8 1018.9 - 0.2
22/05:00am 10.3 7.2 5.5 72 2.2 SSW 11 13 6 7 1018.4 - 0.2
22/04:30am 10.5 7.3 5.3 70 2.4 SSW 11 13 6 7 1017.9 - 0.2
22/04:00am 10.2 7.1 5.4 72 2.2 SSW 11 13 6 7 1017.4 - 0.2
22/03:30am 10.5 7.7 5.3 70 2.4 SSW 9 11 5 6 1017.3 - 0.2
22/03:00am 11.1 8.4 5.4 68 2.7 S 9 13 5 7 1017.0 1015.0 0.2
22/02:30am 11.4 8.6 5.1 65 2.9 S 9 13 5 7 1016.9 - 0.2
22/02:00am 11.6 8.8 5.3 65 3.0 S 9 11 5 6 1016.8 - 0.2
22/01:30am 12.7 9.8 4.7 58 3.7 S 9 13 5 7 1016.7 - 0.2
22/01:00am 13.3 9.6 4.5 55 4.1 S 13 17 7 9 1016.5 - 0.2
22/12:30am 13.7 10.0 4.6 54 4.3 S 13 17 7 9 1016.4 - 0.2
22/12:00am 14.6 10.9 4.3 50 4.8 S 13 17 7 9 1016.5 1014.5 0.2
 
Date/Time
WST
Temp
°C
App
Temp
°C
Dew
Point
°C
Rel
Hum
%
Delta-T
°C
Wind Press
QNH
hPa
Press
MSL
hPa
Rain since
9am
mm
Dir  Spd
km/h
Gust
km/h
Spd
kts
Gust
kts
21/11:30pm 15.3 11.2 4.1 47 5.3 S 15 19 8 10 1016.3 - 0.2
21/11:00pm 16.4 11.8 3.5 42 6.1 S 17 24 9 13 1016.5 - 0.2
21/10:30pm 16.8 12.2 3.5 41 6.3 S 17 24 9 13 1016.4 - 0.2
21/10:00pm 17.3 12.6 3.2 39 6.6 S 17 24 9 13 1016.3 - 0.2
21/09:30pm 18.1 13.3 2.8 36 7.2 S 17 26 9 14 1016.1 - 0.2
21/09:00pm 18.5 14.1 2.8 35 7.4 S 15 22 8 12 1015.5 1013.4 0.2
21/08:30pm 19.7 14.4 2.1 31 8.2 SSW 19 30 10 16 1015.1 - 0.2
21/08:00pm 20.4 14.9 1.8 29 8.7 SW 20 28 11 15 1014.4 - 0.2
21/07:30pm 20.8 15.3 2.1 29 8.8 SW 20 28 11 15 1014.1 - 0.2
21/07:00pm 21.3 15.2 2.6 29 9.0 SW 24 33 13 18 1013.4 - 0.2
21/06:30pm 22.1 15.6 2.8 28 9.3 WSW 26 43 14 23 1012.5 - 0.2
21/06:05pm 22.9 15.7 2.9 27 9.7 WSW 30 48 16 26 1012.0 - 0.2
21/06:00pm 23.1 17.0 4.6 30 9.3 WSW 26 43 14 23 1012.0 1009.9 0.2
21/05:34pm 23.7 16.9 5.1 30 9.5 SW 30 50 16 27 1011.1 - 0.2
21/05:30pm 23.6 17.3 5.5 31 9.3 WSW 28 41 15 22 1011.1 - 0.2
21/05:17pm 23.7 16.5 5.1 30 9.5 WSW 32 50 17 27 1011.0 - 0.2
21/05:00pm 24.2 16.6 6.0 31 9.5 WSW 35 46 19 25 1010.7 - 0.2
21/04:33pm 24.5 17.0 6.3 31 9.5 WSW 35 59 19 32 1010.2 - 0.2
21/04:30pm 24.4 17.3 6.2 31 9.5 WSW 33 50 18 27 1010.2 - 0.2
21/04:00pm 24.8 17.0 6.5 31 9.6 WSW 37 56 20 30 1009.9 - 0.2
21/03:30pm 25.4 18.5 6.6 30 10.0 W 32 52 17 28 1009.7 - 0.2
21/03:01pm 25.7 19.0 7.3 31 9.9 WSW 32 57 17 31 1009.6 - 0.2
21/03:00pm 25.7 19.4 7.3 31 9.9 WSW 30 44 16 24 1009.6 1007.5 0.2
21/02:33pm 25.4 18.7 7.5 32 9.6 W 32 50 17 27 1009.7 - 0.2
21/02:30pm 25.1 18.1 6.8 31 9.7 W 33 48 18 26 1009.8 - 0.2
21/02:10pm 24.8 17.8 7.0 32 9.5 WSW 33 54 18 29 1009.8 - 0.2
21/02:00pm 25.3 18.4 7.4 32 9.6 W 33 50 18 27 1009.8 - 0.2
21/01:55pm 25.4 18.3 8.0 33 9.4 W 35 54 19 29 1009.8 - 0.2
21/01:30pm 24.8 17.9 7.4 33 9.3 WSW 33 50 18 27 1010.0 - 0.2
21/01:02pm 25.2 18.7 8.2 34 9.2 WSW 32 50 17 27 1010.0 - 0.2
21/01:00pm 25.0 18.4 8.5 35 9.0 WSW 33 50 18 27 1010.0 - 0.2
21/12:30pm 24.3 17.5 7.9 35 8.8 WSW 33 50 18 27 1010.1 - 0.2
21/12:04pm 23.8 18.1 8.2 37 8.4 W 28 46 15 25 1009.9 - 0.2
21/12:00pm 23.6 17.0 7.7 36 8.5 W 32 46 17 25 1010.1 1008.0 0.2
21/11:30am 23.4 16.9 8.3 38 8.1 W 32 46 17 25 1010.2 - 0.2
21/11:04am 23.0 16.0 8.3 39 7.9 W 35 54 19 29 1010.2 - 0.2
21/11:00am 22.9 15.6 7.0 36 8.4 W 35 48 19 26 1010.2 - 0.2
21/10:36am 23.7 17.3 6.9 34 8.9 W 30 48 16 26 1009.9 - 0.2
21/10:30am 23.3 17.9 8.2 38 8.1 W 26 43 14 23 1009.9 - 0.2
21/10:00am 22.4 16.8 10.2 46 6.8 W 30 46 16 25 1010.1 - 0.0
21/09:43am 22.4 17.5 11.2 49 6.3 W 28 46 15 25 1010.0 - 0.0
21/09:30am 22.0 18.5 13.4 58 5.0 W 24 41 13 22 1009.9 - 0.0
21/09:00am 21.7 18.6 14.6 64 4.2 W 24 33 13 18 1009.8 1007.7 0.4
21/08:30am 21.1 19.1 15.6 71 3.3 WNW 20 28 11 15 1009.7 - 0.4
21/08:00am 19.9 16.3 15.3 75 2.8 W 28 43 15 23 1010.0 - 0.4
21/07:30am 20.6 17.7 16.0 75 2.8 W 26 41 14 22 1009.5 - 0.4
21/07:00am 21.3 20.1 17.5 79 2.4 W 20 35 11 19 1009.2 - 0.4
21/06:30am 21.6 21.5 17.8 79 2.4 WNW 15 24 8 13 1008.6 - 0.4
21/06:00am 20.8 21.1 18.0 84 1.8 WNW 13 17 7 9 1008.3 1006.2 0.4
21/05:30am 20.1 20.6 18.4 90 1.1 N 13 17 7 9 1007.8 - 0.4
21/05:00am 20.9 22.0 18.1 84 1.8 WNW 9 13 5 7 1007.5 - 0.4
21/04:30am 21.0 22.4 18.6 86 1.5 NW 9 11 5 6 1007.2 - 0.4
21/04:00am 21.3 22.9 18.3 83 1.9 WNW 7 13 4 7 1007.1 - 0.4
21/03:30am 21.5 21.6 18.3 82 2.0 NW 15 20 8 11 1008.0 - 0.4
21/03:00am 22.1 21.6 17.9 77 2.7 NNW 17 22 9 12 1007.9 1005.8 0.0
21/02:30am 23.0 22.8 17.7 72 3.3 NW 15 26 8 14 1008.9 - 0.0
21/02:00am 22.5 23.8 19.3 82 2.1 NW 11 15 6 8 1009.0 - 0.0
21/01:30am 22.0 23.0 19.5 86 1.6 NNW 13 17 7 9 1009.6 - 0.0
21/01:00am 22.7 24.9 19.5 82 2.1 NW 7 11 4 6 1009.9 - 0.0
21/12:30am 22.8 25.0 19.2 80 2.3 NNW 6 7 3 4 1009.6 - 0.0
21/12:00am 22.7 24.5 19.5 82 2.1 WSW 9 11 5 6 1010.0 1007.9 0.0
 
Date/Time
WST
Temp
°C
App
Temp
°C
Dew
Point
°C
Rel
Hum
%
Delta-T
°C
Wind Press
QNH
hPa
Press
MSL
hPa
Rain since
9am
mm
Dir  Spd
km/h
Gust
km/h
Spd
kts
Gust
kts
20/11:30pm 23.2 24.7 18.9 77 2.8 WSW 9 13 5 7 1010.6 - 0.0
20/11:00pm 23.5 24.2 18.8 75 3.0 SW 13 17 7 9 1011.1 - 0.0
20/10:30pm 23.6 25.0 18.7 74 3.1 S 9 15 5 8 1010.8 - 0.0
20/10:00pm 24.4 23.0 17.9 67 4.1 SW 22 30 12 16 1011.2 - 0.0
20/09:30pm 26.0 22.1 16.5 55 5.9 SW 32 43 17 23 1011.2 - 0.0
20/09:11pm 26.9 22.1 15.6 50 7.0 WSW 35 54 19 29 1011.1 - 0.0
20/09:00pm 27.4 22.0 15.1 47 7.6 WSW 37 54 20 29 1010.9 1008.8 0.0
20/08:59pm 27.6 22.2 14.9 45 7.8 WSW 37 54 20 29 1010.9 - 0.0
20/08:43pm 30.1 24.1 12.1 33 10.7 W 35 44 19 24 1010.3 - 0.0
20/08:30pm 30.4 26.8 8.2 25 12.4 N 17 24 9 13 1008.9 - 0.0
20/08:00pm 30.6 27.0 8.3 25 12.5 N 17 22 9 12 1008.5 - 0.0
20/07:30pm 30.8 28.4 10.2 28 11.9 NNE 13 20 7 11 1008.3 - 0.0
20/07:00pm 30.9 28.9 10.3 28 11.9 NNE 11 15 6 8 1008.0 - 0.0
20/06:30pm 32.0 29.6 10.1 26 12.7 N 13 19 7 10 1007.9 - 0.0
20/06:00pm 33.0 30.1 9.7 24 13.5 N 15 20 8 11 1007.7 1005.6 0.0
20/05:30pm 33.2 31.5 11.1 26 13.1 NNE 11 15 6 8 1007.7 - 0.0
20/05:00pm 33.5 30.4 10.2 24 13.6 N 17 28 9 15 1007.9 - 0.0
20/04:30pm 33.6 30.7 10.9 25 13.4 N 17 22 9 12 1008.0 - 0.0
20/04:00pm 34.0 30.4 9.9 23 14.1 N 19 26 10 14 1008.1 - 0.0
20/03:30pm 34.2 32.4 12.0 26 13.4 N 13 22 7 12 1008.5 - 0.0
20/03:00pm 34.1 31.7 8.7 21 14.6 NNE 11 22 6 12 1009.0 1006.9 0.0
20/02:30pm 33.8 30.4 7.7 20 14.7 NNW 15 24 8 13 1009.6 - 0.0
20/02:00pm 33.8 30.8 9.1 22 14.2 N 15 22 8 12 1010.1 - 0.0
20/01:30pm 33.5 31.6 11.9 27 13.0 NW 13 20 7 11 1010.7 - 0.0
20/01:00pm 33.0 31.1 10.4 25 13.2 NW 11 19 6 10 1011.2 - 0.0
20/12:30pm 32.2 30.4 10.8 27 12.6 NW 11 19 6 10 1011.8 - 0.0
20/12:00pm 31.3 27.9 7.7 23 13.1 NNW 15 22 8 12 1012.2 1010.1 0.0
20/11:30am 30.6 27.4 8.3 25 12.5 N 15 24 8 13 1012.8 - 0.0
20/11:00am 29.7 26.0 9.3 28 11.6 N 19 26 10 14 1013.5 - 0.0
20/10:30am 29.1 25.0 8.7 28 11.4 NNW 20 32 11 17 1013.9 - 0.0
20/10:00am 28.1 24.4 9.4 31 10.5 NNW 19 26 10 14 1014.3 - 0.0
20/09:30am 26.7 22.1 6.7 28 10.7 N 20 28 11 15 1014.7 - 0.0
20/09:00am 25.4 19.9 6.1 29 10.1 N 24 32 13 17 1015.1 1013.0 0.0
20/08:30am 24.3 19.5 7.4 34 9.0 N 22 32 12 17 1015.4 - 0.0
20/08:18am 24.0 18.6 6.3 32 9.2 N 24 32 13 17 1015.5 - 0.0
20/08:08am 23.8 19.2 6.6 33 9.0 N 20 35 11 19 1015.5 - 0.0
20/08:00am 23.8 19.3 7.0 34 8.9 N 20 32 11 17 1015.6 - 0.0
20/07:58am 23.7 19.4 7.8 36 8.5 N 20 32 11 17 1015.6 - 0.0
20/07:30am 22.4 18.1 7.0 37 8.1 N 19 26 10 14 1015.5 - 0.0
20/07:00am 21.0 16.7 6.9 40 7.3 N 19 30 10 16 1015.5 - 0.0
20/06:30am 19.9 16.1 7.6 45 6.4 N 17 20 9 11 1015.5 - 0.0
20/06:00am 18.9 15.3 6.7 45 6.2 N 15 20 8 11 1015.4 1013.3 0.0
20/05:30am 18.8 15.9 6.3 44 6.3 N 11 17 6 9 1015.1 - 0.0
20/05:00am 18.7 15.7 6.2 44 6.3 N 11 17 6 9 1015.0 - 0.0
20/04:30am 19.1 16.1 5.9 42 6.6 NNE 11 17 6 9 1014.7 - 0.0
20/04:00am 19.4 16.0 5.8 41 6.8 NNE 13 20 7 11 1014.5 - 0.0
20/03:30am 19.7 16.6 5.7 40 7.0 NNE 11 19 6 10 1014.4 - 0.0
20/03:00am 19.7 17.1 6.1 41 6.9 NNE 9 13 5 7 1014.4 1012.4 0.0
20/02:30am 20.3 17.4 6.6 41 7.0 NNE 11 15 6 8 1014.2 - 0.0
20/02:00am 20.5 18.1 6.8 41 7.1 NNE 9 13 5 7 1014.5 - 0.0
20/01:30am 20.8 18.5 7.4 42 7.0 NNE 9 13 5 7 1014.8 - 0.0
20/01:00am 21.4 19.1 7.3 40 7.4 NNE 9 13 5 7 1015.0 - 0.0
20/12:30am 21.8 19.2 7.6 40 7.5 NNE 11 15 6 8 1015.1 - 0.0
20/12:00am 21.9 19.4 8.4 42 7.2 NNE 11 13 6 7 1015.6 1013.5 0.0
 
Date/Time
WST
Temp
°C
App
Temp
°C
Dew
Point
°C
Rel
Hum
%
Delta-T
°C
Wind Press
QNH
hPa
Press
MSL
hPa
Rain since
9am
mm
Dir  Spd
km/h
Gust
km/h
Spd
kts
Gust
kts
19/11:30pm 22.2 20.6 8.7 42 7.3 N 7 7 4 4 1015.8 - 0.0
19/11:00pm 22.8 20.7 8.1 39 7.9 NNE 9 13 5 7 1015.9 - 0.0
19/10:30pm 22.4 21.3 9.9 45 6.9 NNE 6 9 3 5 1016.0 - 0.0
19/10:00pm 22.0 20.8 10.2 47 6.5 E 7 9 4 5 1016.1 - 0.0
19/09:30pm 22.0 21.3 11.4 51 6.0 SE 6 7 3 4 1016.2 - 0.0
19/09:00pm 22.9 21.4 9.3 42 7.4 SE 7 9 4 5 1016.4 1014.4 0.0
19/08:48pm 23.1 21.7 10.9 46 6.9 SE 9 9 5 5 1016.4 - 0.0
19/08:30pm 24.0 22.7 9.9 41 7.9 ESE 7 9 4 5 1016.4 - 0.0
19/08:29pm 24.0 22.6 9.6 40 8.0 ESE 7 9 4 5 1016.4 - 0.0
19/08:00pm 23.9 23.1 9.5 40 8.0 ESE 4 9 2 5 1016.3 - 0.0
19/07:30pm 24.6 23.3 10.1 40 8.1 ESE 7 9 4 5 1016.0 - 0.0
19/07:00pm 26.0 25.4 7.6 31 10.0 CALM 0 0 0 0 1015.6 - 0.0
19/06:30pm 27.9 27.2 8.7 30 10.7 NNE 2 6 1 3 1015.5 - 0.0
19/06:00pm 29.2 28.4 8.3 27 11.6 NNE 2 6 1 3 1015.4 1013.3 0.0
19/05:30pm 29.6 28.1 6.9 24 12.4 NE 4 7 2 4 1015.4 - 0.0
19/05:00pm 29.8 28.4 7.1 24 12.4 N 4 9 2 5 1015.5 - 0.0
19/04:30pm 29.7 28.4 9.3 28 11.6 NE 6 9 3 5 1015.6 - 0.0
19/04:00pm 29.4 26.5 6.7 24 12.3 ESE 11 17 6 9 1015.6 - 0.0
19/03:30pm 29.2 26.7 8.3 27 11.6 N 11 17 6 9 1015.9 - 0.0
19/03:00pm 29.2 27.1 8.3 27 11.6 N 9 17 5 9 1016.2 1014.2 0.0
19/02:30pm 28.7 26.1 7.9 27 11.5 ENE 11 20 6 11 1016.6 - 0.0
19/02:00pm 28.6 27.0 10.3 32 10.5 NE 9 17 5 9 1016.9 - 0.0
19/01:30pm 27.7 25.4 7.5 28 11.0 ENE 9 13 5 7 1017.3 - 0.0
19/01:00pm 27.0 24.8 9.4 33 9.9 N 11 17 6 9 1018.0 - 0.0
19/12:30pm 26.7 24.5 9.5 34 9.6 N 11 19 6 10 1018.4 - 0.0
19/12:00pm 25.8 22.7 8.8 34 9.4 N 15 24 8 13 1018.8 1016.8 0.0

Other Formats:

Comma delimited format used in spreadsheet applications
http://www.bom.gov.au/fwo/IDW60801/IDW60801.94637.axf

JavaScript Object Notation format (JSON) in row-major order
http://www.bom.gov.au/fwo/IDW60801/IDW60801.94637.json